sensor_id;sensor_type;location;lat;lon;timestamp;P1;durP1;ratioP1;P2;durP2;ratioP2
43706;SDS011;61348;53.392;-6.248;2023-07-13T00:00:23;4.63;;;1.50;;
43706;SDS011;61348;53.392;-6.248;2023-07-13T00:02:50;3.45;;;1.05;;
43706;SDS011;61348;53.392;-6.248;2023-07-13T00:05:20;3.95;;;1.73;;
43706;SDS011;61348;53.392;-6.248;2023-07-13T00:07:48;1.40;;;0.82;;
43706;SDS011;61348;53.392;-6.248;2023-07-13T00:10:16;1.63;;;1.00;;
43706;SDS011;61348;53.392;-6.248;2023-07-13T00:12:44;3.22;;;1.60;;
43706;SDS011;61348;53.392;-6.248;2023-07-13T00:15:22;2.65;;;0.90;;
43706;SDS011;61348;53.392;-6.248;2023-07-13T00:17:56;6.70;;;1.17;;
43706;SDS011;61348;53.392;-6.248;2023-07-13T00:20:23;2.42;;;1.42;;
43706;SDS011;61348;53.392;-6.248;2023-07-13T00:22:53;3.58;;;1.23;;
43706;SDS011;61348;53.392;-6.248;2023-07-13T00:25:21;8.75;;;1.27;;
43706;SDS011;61348;53.392;-6.248;2023-07-13T00:27:50;3.25;;;0.93;;
43706;SDS011;61348;53.392;-6.248;2023-07-13T00:30:17;2.10;;;1.30;;
43706;SDS011;61348;53.392;-6.248;2023-07-13T00:32:45;4.65;;;1.20;;
43706;SDS011;61348;53.392;-6.248;2023-07-13T00:35:13;4.43;;;1.27;;
43706;SDS011;61348;53.392;-6.248;2023-07-13T00:37:41;4.93;;;1.20;;
43706;SDS011;61348;53.392;-6.248;2023-07-13T00:40:09;4.03;;;1.77;;
43706;SDS011;61348;53.392;-6.248;2023-07-13T00:42:38;5.50;;;1.33;;
43706;SDS011;61348;53.392;-6.248;2023-07-13T00:47:38;1.90;;;1.20;;
43706;SDS011;61348;53.392;-6.248;2023-07-13T00:50:08;2.95;;;1.23;;
43706;SDS011;61348;53.392;-6.248;2023-07-13T00:52:37;5.90;;;1.55;;
43706;SDS011;61348;53.392;-6.248;2023-07-13T00:55:07;1.80;;;0.98;;
43706;SDS011;61348;53.392;-6.248;2023-07-13T00:57:35;5.97;;;1.30;;
43706;SDS011;61348;53.392;-6.248;2023-07-13T01:00:04;4.15;;;1.38;;
43706;SDS011;61348;53.392;-6.248;2023-07-13T01:02:33;2.67;;;1.23;;
43706;SDS011;61348;53.392;-6.248;2023-07-13T01:05:00;6.57;;;1.75;;
43706;SDS011;61348;53.392;-6.248;2023-07-13T01:07:28;7.18;;;1.92;;
43706;SDS011;61348;53.392;-6.248;2023-07-13T01:09:55;10.35;;;2.25;;
43706;SDS011;61348;53.392;-6.248;2023-07-13T01:12:21;6.18;;;1.73;;
43706;SDS011;61348;53.392;-6.248;2023-07-13T01:14:56;3.47;;;1.10;;
43706;SDS011;61348;53.392;-6.248;2023-07-13T01:17:23;5.82;;;2.03;;
43706;SDS011;61348;53.392;-6.248;2023-07-13T01:19:50;4.78;;;1.90;;
43706;SDS011;61348;53.392;-6.248;2023-07-13T01:22:18;8.20;;;2.05;;
43706;SDS011;61348;53.392;-6.248;2023-07-13T01:24:46;5.57;;;2.05;;
43706;SDS011;61348;53.392;-6.248;2023-07-13T01:27:16;6.65;;;1.40;;
43706;SDS011;61348;53.392;-6.248;2023-07-13T01:29:47;4.40;;;2.00;;
43706;SDS011;61348;53.392;-6.248;2023-07-13T01:32:15;6.18;;;1.48;;
43706;SDS011;61348;53.392;-6.248;2023-07-13T01:34:49;8.23;;;1.75;;
43706;SDS011;61348;53.392;-6.248;2023-07-13T01:37:20;4.35;;;1.30;;
43706;SDS011;61348;53.392;-6.248;2023-07-13T01:39:48;4.68;;;1.50;;
43706;SDS011;61348;53.392;-6.248;2023-07-13T01:42:15;5.30;;;1.70;;
43706;SDS011;61348;53.392;-6.248;2023-07-13T01:44:42;6.95;;;1.52;;
43706;SDS011;61348;53.392;-6.248;2023-07-13T01:47:10;4.65;;;1.15;;
43706;SDS011;61348;53.392;-6.248;2023-07-13T01:49:36;7.63;;;1.52;;
43706;SDS011;61348;53.392;-6.248;2023-07-13T01:52:04;5.45;;;3.20;;
43706;SDS011;61348;53.392;-6.248;2023-07-13T01:54:31;5.13;;;1.38;;
43706;SDS011;61348;53.392;-6.248;2023-07-13T01:57:00;5.93;;;1.55;;
43706;SDS011;61348;53.392;-6.248;2023-07-13T01:59:27;5.53;;;1.55;;
43706;SDS011;61348;53.392;-6.248;2023-07-13T02:01:54;4.25;;;1.98;;
43706;SDS011;61348;53.392;-6.248;2023-07-13T02:04:21;6.75;;;1.50;;
43706;SDS011;61348;53.392;-6.248;2023-07-13T02:06:48;3.08;;;1.60;;
43706;SDS011;61348;53.392;-6.248;2023-07-13T02:09:15;5.03;;;2.00;;
43706;SDS011;61348;53.392;-6.248;2023-07-13T02:11:42;6.20;;;1.73;;
43706;SDS011;61348;53.392;-6.248;2023-07-13T02:14:08;7.55;;;1.63;;
43706;SDS011;61348;53.392;-6.248;2023-07-13T02:16:35;5.05;;;1.67;;
43706;SDS011;61348;53.392;-6.248;2023-07-13T02:19:02;4.00;;;1.38;;
43706;SDS011;61348;53.392;-6.248;2023-07-13T02:21:29;4.63;;;1.63;;
43706;SDS011;61348;53.392;-6.248;2023-07-13T02:23:56;6.00;;;1.50;;
43706;SDS011;61348;53.392;-6.248;2023-07-13T02:26:24;6.78;;;2.13;;
43706;SDS011;61348;53.392;-6.248;2023-07-13T02:28:51;4.15;;;1.92;;
43706;SDS011;61348;53.392;-6.248;2023-07-13T02:31:18;4.90;;;1.50;;
43706;SDS011;61348;53.392;-6.248;2023-07-13T02:33:45;4.57;;;1.77;;
43706;SDS011;61348;53.392;-6.248;2023-07-13T02:36:12;7.18;;;1.63;;
43706;SDS011;61348;53.392;-6.248;2023-07-13T02:38:40;8.10;;;1.85;;
43706;SDS011;61348;53.392;-6.248;2023-07-13T02:41:08;5.80;;;1.58;;
43706;SDS011;61348;53.392;-6.248;2023-07-13T02:43:36;5.68;;;2.25;;
43706;SDS011;61348;53.392;-6.248;2023-07-13T02:46:03;6.28;;;1.98;;
43706;SDS011;61348;53.392;-6.248;2023-07-13T02:48:34;5.03;;;1.75;;
43706;SDS011;61348;53.392;-6.248;2023-07-13T02:51:02;3.25;;;1.65;;
43706;SDS011;61348;53.392;-6.248;2023-07-13T02:53:29;9.65;;;2.00;;
43706;SDS011;61348;53.392;-6.248;2023-07-13T02:55:56;10.73;;;2.20;;
43706;SDS011;61348;53.392;-6.248;2023-07-13T02:58:23;4.28;;;1.77;;
43706;SDS011;61348;53.392;-6.248;2023-07-13T03:00:49;5.28;;;1.77;;
43706;SDS011;61348;53.392;-6.248;2023-07-13T03:03:17;5.85;;;2.03;;
43706;SDS011;61348;53.392;-6.248;2023-07-13T03:05:44;6.82;;;2.10;;
43706;SDS011;61348;53.392;-6.248;2023-07-13T03:08:17;8.68;;;1.88;;
43706;SDS011;61348;53.392;-6.248;2023-07-13T03:10:44;10.15;;;1.70;;
43706;SDS011;61348;53.392;-6.248;2023-07-13T03:13:11;10.23;;;2.85;;
43706;SDS011;61348;53.392;-6.248;2023-07-13T03:15:38;5.03;;;1.65;;
43706;SDS011;61348;53.392;-6.248;2023-07-13T03:18:05;5.55;;;1.90;;
43706;SDS011;61348;53.392;-6.248;2023-07-13T03:20:33;2.45;;;1.67;;
43706;SDS011;61348;53.392;-6.248;2023-07-13T03:23:00;5.45;;;1.80;;
43706;SDS011;61348;53.392;-6.248;2023-07-13T03:25:27;5.45;;;1.75;;
43706;SDS011;61348;53.392;-6.248;2023-07-13T03:27:54;8.48;;;2.17;;
43706;SDS011;61348;53.392;-6.248;2023-07-13T03:30:21;8.68;;;2.63;;
43706;SDS011;61348;53.392;-6.248;2023-07-13T03:32:48;10.98;;;2.03;;
43706;SDS011;61348;53.392;-6.248;2023-07-13T03:35:15;4.88;;;1.83;;
43706;SDS011;61348;53.392;-6.248;2023-07-13T03:37:42;2.88;;;1.90;;
43706;SDS011;61348;53.392;-6.248;2023-07-13T03:40:09;10.68;;;1.80;;
43706;SDS011;61348;53.392;-6.248;2023-07-13T03:42:37;5.78;;;1.58;;
43706;SDS011;61348;53.392;-6.248;2023-07-13T03:45:03;4.53;;;1.80;;
43706;SDS011;61348;53.392;-6.248;2023-07-13T03:47:31;6.80;;;2.67;;
43706;SDS011;61348;53.392;-6.248;2023-07-13T03:49:58;5.82;;;1.63;;
43706;SDS011;61348;53.392;-6.248;2023-07-13T03:52:25;6.88;;;3.08;;
43706;SDS011;61348;53.392;-6.248;2023-07-13T03:54:52;11.75;;;3.20;;
43706;SDS011;61348;53.392;-6.248;2023-07-13T03:57:19;10.73;;;2.00;;
43706;SDS011;61348;53.392;-6.248;2023-07-13T03:59:45;10.73;;;1.90;;
43706;SDS011;61348;53.392;-6.248;2023-07-13T04:02:12;6.55;;;1.90;;
43706;SDS011;61348;53.392;-6.248;2023-07-13T04:04:39;5.30;;;1.75;;
43706;SDS011;61348;53.392;-6.248;2023-07-13T04:07:09;6.72;;;2.28;;
43706;SDS011;61348;53.392;-6.248;2023-07-13T04:09:36;10.00;;;2.20;;
43706;SDS011;61348;53.392;-6.248;2023-07-13T04:12:02;3.83;;;1.95;;
43706;SDS011;61348;53.392;-6.248;2023-07-13T04:14:30;5.75;;;1.73;;
43706;SDS011;61348;53.392;-6.248;2023-07-13T04:16:56;4.88;;;1.70;;
43706;SDS011;61348;53.392;-6.248;2023-07-13T04:19:24;8.75;;;1.40;;
43706;SDS011;61348;53.392;-6.248;2023-07-13T04:21:50;4.55;;;1.60;;
43706;SDS011;61348;53.392;-6.248;2023-07-13T04:24:17;5.32;;;1.58;;
43706;SDS011;61348;53.392;-6.248;2023-07-13T04:26:44;6.10;;;2.25;;
43706;SDS011;61348;53.392;-6.248;2023-07-13T04:29:11;9.50;;;1.88;;
43706;SDS011;61348;53.392;-6.248;2023-07-13T04:31:38;6.80;;;1.35;;
43706;SDS011;61348;53.392;-6.248;2023-07-13T04:34:05;8.35;;;1.67;;
43706;SDS011;61348;53.392;-6.248;2023-07-13T04:36:32;3.90;;;2.03;;
43706;SDS011;61348;53.392;-6.248;2023-07-13T04:38:59;7.53;;;2.22;;
43706;SDS011;61348;53.392;-6.248;2023-07-13T04:41:26;6.05;;;2.08;;
43706;SDS011;61348;53.392;-6.248;2023-07-13T04:43:52;6.20;;;1.73;;
43706;SDS011;61348;53.392;-6.248;2023-07-13T04:46:22;5.47;;;1.80;;
43706;SDS011;61348;53.392;-6.248;2023-07-13T04:48:49;6.32;;;1.52;;
43706;SDS011;61348;53.392;-6.248;2023-07-13T04:51:20;6.65;;;1.90;;
43706;SDS011;61348;53.392;-6.248;2023-07-13T04:53:46;7.35;;;2.28;;
43706;SDS011;61348;53.392;-6.248;2023-07-13T04:56:13;8.18;;;2.10;;
43706;SDS011;61348;53.392;-6.248;2023-07-13T04:58:40;9.02;;;1.67;;
43706;SDS011;61348;53.392;-6.248;2023-07-13T05:01:07;11.30;;;2.67;;
43706;SDS011;61348;53.392;-6.248;2023-07-13T05:03:36;7.80;;;1.40;;
43706;SDS011;61348;53.392;-6.248;2023-07-13T05:06:04;3.28;;;1.63;;
43706;SDS011;61348;53.392;-6.248;2023-07-13T05:08:33;4.15;;;1.55;;
43706;SDS011;61348;53.392;-6.248;2023-07-13T05:11:00;7.82;;;1.35;;
43706;SDS011;61348;53.392;-6.248;2023-07-13T05:13:27;7.68;;;1.95;;
43706;SDS011;61348;53.392;-6.248;2023-07-13T05:15:59;6.88;;;1.83;;
43706;SDS011;61348;53.392;-6.248;2023-07-13T05:18:30;7.65;;;1.50;;
43706;SDS011;61348;53.392;-6.248;2023-07-13T05:20:58;6.85;;;2.05;;
43706;SDS011;61348;53.392;-6.248;2023-07-13T05:23:26;7.80;;;1.58;;
43706;SDS011;61348;53.392;-6.248;2023-07-13T05:25:56;5.70;;;1.80;;
43706;SDS011;61348;53.392;-6.248;2023-07-13T05:28:23;7.43;;;1.70;;
43706;SDS011;61348;53.392;-6.248;2023-07-13T05:30:50;10.38;;;3.92;;
43706;SDS011;61348;53.392;-6.248;2023-07-13T05:33:17;9.55;;;1.95;;
43706;SDS011;61348;53.392;-6.248;2023-07-13T05:35:44;11.10;;;2.78;;
43706;SDS011;61348;53.392;-6.248;2023-07-13T05:38:11;6.63;;;1.98;;
43706;SDS011;61348;53.392;-6.248;2023-07-13T05:40:38;7.25;;;1.48;;
43706;SDS011;61348;53.392;-6.248;2023-07-13T05:43:05;8.63;;;1.90;;
43706;SDS011;61348;53.392;-6.248;2023-07-13T05:45:32;5.75;;;1.70;;
43706;SDS011;61348;53.392;-6.248;2023-07-13T05:47:59;6.10;;;1.88;;
43706;SDS011;61348;53.392;-6.248;2023-07-13T05:50:26;7.30;;;2.05;;
43706;SDS011;61348;53.392;-6.248;2023-07-13T05:52:53;3.90;;;1.70;;
43706;SDS011;61348;53.392;-6.248;2023-07-13T05:55:20;7.63;;;2.38;;
43706;SDS011;61348;53.392;-6.248;2023-07-13T05:57:47;8.15;;;1.90;;
43706;SDS011;61348;53.392;-6.248;2023-07-13T06:00:14;5.85;;;1.80;;
43706;SDS011;61348;53.392;-6.248;2023-07-13T06:02:41;9.30;;;1.92;;
43706;SDS011;61348;53.392;-6.248;2023-07-13T06:05:09;7.40;;;2.00;;
43706;SDS011;61348;53.392;-6.248;2023-07-13T06:07:36;9.13;;;1.88;;
43706;SDS011;61348;53.392;-6.248;2023-07-13T06:10:03;9.10;;;2.00;;
43706;SDS011;61348;53.392;-6.248;2023-07-13T06:12:30;8.52;;;1.85;;
43706;SDS011;61348;53.392;-6.248;2023-07-13T06:14:57;6.97;;;2.17;;
43706;SDS011;61348;53.392;-6.248;2023-07-13T06:17:23;2.70;;;1.40;;
43706;SDS011;61348;53.392;-6.248;2023-07-13T06:19:50;8.02;;;1.55;;
43706;SDS011;61348;53.392;-6.248;2023-07-13T06:22:17;7.60;;;2.30;;
43706;SDS011;61348;53.392;-6.248;2023-07-13T06:24:44;7.22;;;1.95;;
43706;SDS011;61348;53.392;-6.248;2023-07-13T06:27:11;10.60;;;2.40;;
43706;SDS011;61348;53.392;-6.248;2023-07-13T06:29:37;7.57;;;1.83;;
43706;SDS011;61348;53.392;-6.248;2023-07-13T06:32:06;5.25;;;1.58;;
43706;SDS011;61348;53.392;-6.248;2023-07-13T06:34:33;6.55;;;1.85;;
43706;SDS011;61348;53.392;-6.248;2023-07-13T06:37:00;4.60;;;1.90;;
43706;SDS011;61348;53.392;-6.248;2023-07-13T06:39:29;6.82;;;1.60;;
43706;SDS011;61348;53.392;-6.248;2023-07-13T06:41:56;7.15;;;1.92;;
43706;SDS011;61348;53.392;-6.248;2023-07-13T06:44:23;9.18;;;1.80;;
43706;SDS011;61348;53.392;-6.248;2023-07-13T06:46:50;6.13;;;1.90;;
43706;SDS011;61348;53.392;-6.248;2023-07-13T06:49:17;5.82;;;1.75;;
43706;SDS011;61348;53.392;-6.248;2023-07-13T06:51:44;8.77;;;2.38;;
43706;SDS011;61348;53.392;-6.248;2023-07-13T06:54:10;9.50;;;1.80;;
43706;SDS011;61348;53.392;-6.248;2023-07-13T06:56:37;12.18;;;2.28;;
43706;SDS011;61348;53.392;-6.248;2023-07-13T06:59:04;6.20;;;2.00;;
43706;SDS011;61348;53.392;-6.248;2023-07-13T07:01:30;6.28;;;1.48;;
43706;SDS011;61348;53.392;-6.248;2023-07-13T07:03:57;7.00;;;1.60;;
43706;SDS011;61348;53.392;-6.248;2023-07-13T07:06:24;10.88;;;1.73;;
43706;SDS011;61348;53.392;-6.248;2023-07-13T07:08:51;6.50;;;2.55;;
43706;SDS011;61348;53.392;-6.248;2023-07-13T07:11:20;5.72;;;1.75;;
43706;SDS011;61348;53.392;-6.248;2023-07-13T07:13:51;6.18;;;1.65;;
43706;SDS011;61348;53.392;-6.248;2023-07-13T07:16:19;9.20;;;1.80;;
43706;SDS011;61348;53.392;-6.248;2023-07-13T07:18:47;8.18;;;2.25;;
43706;SDS011;61348;53.392;-6.248;2023-07-13T07:21:14;3.00;;;1.65;;
43706;SDS011;61348;53.392;-6.248;2023-07-13T07:23:41;5.72;;;2.35;;
43706;SDS011;61348;53.392;-6.248;2023-07-13T07:26:09;8.02;;;1.65;;
43706;SDS011;61348;53.392;-6.248;2023-07-13T07:28:36;7.57;;;2.08;;
43706;SDS011;61348;53.392;-6.248;2023-07-13T07:31:11;5.70;;;2.03;;
43706;SDS011;61348;53.392;-6.248;2023-07-13T07:33:40;7.22;;;2.42;;
43706;SDS011;61348;53.392;-6.248;2023-07-13T07:36:07;6.20;;;1.38;;
43706;SDS011;61348;53.392;-6.248;2023-07-13T07:38:37;5.00;;;1.48;;
43706;SDS011;61348;53.392;-6.248;2023-07-13T07:41:04;3.97;;;1.40;;
43706;SDS011;61348;53.392;-6.248;2023-07-13T07:43:34;5.28;;;1.45;;
43706;SDS011;61348;53.392;-6.248;2023-07-13T07:46:02;6.32;;;1.58;;
43706;SDS011;61348;53.392;-6.248;2023-07-13T07:48:29;6.57;;;1.48;;
43706;SDS011;61348;53.392;-6.248;2023-07-13T07:50:56;2.90;;;1.52;;
43706;SDS011;61348;53.392;-6.248;2023-07-13T07:53:23;3.15;;;1.13;;
43706;SDS011;61348;53.392;-6.248;2023-07-13T07:55:50;4.50;;;1.00;;
43706;SDS011;61348;53.392;-6.248;2023-07-13T07:58:20;3.13;;;1.02;;
43706;SDS011;61348;53.392;-6.248;2023-07-13T08:00:50;5.95;;;1.10;;
43706;SDS011;61348;53.392;-6.248;2023-07-13T08:03:20;3.90;;;1.13;;
43706;SDS011;61348;53.392;-6.248;2023-07-13T08:05:52;3.08;;;1.00;;
43706;SDS011;61348;53.392;-6.248;2023-07-13T08:08:22;2.47;;;1.00;;
43706;SDS011;61348;53.392;-6.248;2023-07-13T08:10:49;3.72;;;0.88;;
43706;SDS011;61348;53.392;-6.248;2023-07-13T08:13:16;5.95;;;1.92;;
43706;SDS011;61348;53.392;-6.248;2023-07-13T08:15:43;2.53;;;0.80;;
43706;SDS011;61348;53.392;-6.248;2023-07-13T08:18:10;2.97;;;0.90;;
43706;SDS011;61348;53.392;-6.248;2023-07-13T08:20:40;1.65;;;0.90;;
43706;SDS011;61348;53.392;-6.248;2023-07-13T08:23:10;3.10;;;0.85;;
43706;SDS011;61348;53.392;-6.248;2023-07-13T08:25:37;3.58;;;1.17;;
43706;SDS011;61348;53.392;-6.248;2023-07-13T08:28:04;1.73;;;1.25;;
43706;SDS011;61348;53.392;-6.248;2023-07-13T08:30:31;1.27;;;0.70;;
43706;SDS011;61348;53.392;-6.248;2023-07-13T08:32:58;3.08;;;0.85;;
43706;SDS011;61348;53.392;-6.248;2023-07-13T08:35:25;0.50;;;0.43;;
43706;SDS011;61348;53.392;-6.248;2023-07-13T08:37:52;2.95;;;0.88;;
43706;SDS011;61348;53.392;-6.248;2023-07-13T08:40:19;3.35;;;0.98;;
43706;SDS011;61348;53.392;-6.248;2023-07-13T08:42:55;3.58;;;0.93;;
43706;SDS011;61348;53.392;-6.248;2023-07-13T08:48:05;1.13;;;0.70;;
43706;SDS011;61348;53.392;-6.248;2023-07-13T08:50:41;2.05;;;1.48;;
43706;SDS011;61348;53.392;-6.248;2023-07-13T08:53:29;2.67;;;0.98;;
43706;SDS011;61348;53.392;-6.248;2023-07-13T08:56:03;13.00;;;1.77;;
43706;SDS011;61348;53.392;-6.248;2023-07-13T08:58:36;3.20;;;0.80;;
43706;SDS011;61348;53.392;-6.248;2023-07-13T09:01:14;2.85;;;0.93;;
43706;SDS011;61348;53.392;-6.248;2023-07-13T09:04:04;1.50;;;0.70;;
43706;SDS011;61348;53.392;-6.248;2023-07-13T09:07:19;1.23;;;0.75;;
43706;SDS011;61348;53.392;-6.248;2023-07-13T09:12:54;1.95;;;1.00;;
43706;SDS011;61348;53.392;-6.248;2023-07-13T09:18:43;4.70;;;1.20;;
43706;SDS011;61348;53.392;-6.248;2023-07-13T09:23:29;1.55;;;0.95;;
43706;SDS011;61348;53.392;-6.248;2023-07-13T09:26:00;2.88;;;0.88;;
43706;SDS011;61348;53.392;-6.248;2023-07-13T09:31:26;1.63;;;0.63;;
43706;SDS011;61348;53.392;-6.248;2023-07-13T09:34:00;0.90;;;0.68;;
43706;SDS011;61348;53.392;-6.248;2023-07-13T09:36:28;1.92;;;0.70;;
43706;SDS011;61348;53.392;-6.248;2023-07-13T09:44:14;1.58;;;0.88;;
43706;SDS011;61348;53.392;-6.248;2023-07-13T09:46:46;2.80;;;0.93;;
43706;SDS011;61348;53.392;-6.248;2023-07-13T09:49:22;1.90;;;0.85;;
43706;SDS011;61348;53.392;-6.248;2023-07-13T09:51:57;1.67;;;1.08;;
43706;SDS011;61348;53.392;-6.248;2023-07-13T09:54:33;1.90;;;0.77;;
43706;SDS011;61348;53.392;-6.248;2023-07-13T09:57:02;1.70;;;0.60;;
43706;SDS011;61348;53.392;-6.248;2023-07-13T09:59:41;1.88;;;0.63;;
43706;SDS011;61348;53.392;-6.248;2023-07-13T10:04:57;2.22;;;0.60;;
43706;SDS011;61348;53.392;-6.248;2023-07-13T10:07:30;2.22;;;0.57;;
43706;SDS011;61348;53.392;-6.248;2023-07-13T10:09:59;1.55;;;0.90;;
43706;SDS011;61348;53.392;-6.248;2023-07-13T10:12:28;3.97;;;1.63;;
43706;SDS011;61348;53.392;-6.248;2023-07-13T10:14:57;3.65;;;0.98;;
43706;SDS011;61348;53.392;-6.248;2023-07-13T10:17:46;1.70;;;0.90;;
43706;SDS011;61348;53.392;-6.248;2023-07-13T10:20:14;3.60;;;1.00;;
43706;SDS011;61348;53.392;-6.248;2023-07-13T10:25:36;1.42;;;0.93;;
43706;SDS011;61348;53.392;-6.248;2023-07-13T10:30:40;2.33;;;1.02;;
43706;SDS011;61348;53.392;-6.248;2023-07-13T10:33:12;1.63;;;0.70;;
43706;SDS011;61348;53.392;-6.248;2023-07-13T10:35:40;1.67;;;0.93;;
43706;SDS011;61348;53.392;-6.248;2023-07-13T10:38:11;1.67;;;0.80;;
43706;SDS011;61348;53.392;-6.248;2023-07-13T10:40:45;0.70;;;0.70;;
43706;SDS011;61348;53.392;-6.248;2023-07-13T10:43:37;1.42;;;0.80;;
43706;SDS011;61348;53.392;-6.248;2023-07-13T10:46:13;3.72;;;0.75;;
43706;SDS011;61348;53.392;-6.248;2023-07-13T10:48:42;3.33;;;0.68;;
43706;SDS011;61348;53.392;-6.248;2023-07-13T10:51:14;3.80;;;0.93;;
43706;SDS011;61348;53.392;-6.248;2023-07-13T10:53:42;1.92;;;1.33;;
43706;SDS011;61348;53.392;-6.248;2023-07-13T10:58:39;1.60;;;0.80;;
43706;SDS011;61348;53.392;-6.248;2023-07-13T11:01:17;1.77;;;0.93;;
43706;SDS011;61348;53.392;-6.248;2023-07-13T11:03:49;3.53;;;0.90;;
43706;SDS011;61348;53.392;-6.248;2023-07-13T11:11:35;1.73;;;1.00;;
43706;SDS011;61348;53.392;-6.248;2023-07-13T11:14:13;2.90;;;0.82;;
43706;SDS011;61348;53.392;-6.248;2023-07-13T11:16:53;3.08;;;1.10;;
43706;SDS011;61348;53.392;-6.248;2023-07-13T11:28:27;1.85;;;0.93;;
43706;SDS011;61348;53.392;-6.248;2023-07-13T11:33:17;1.83;;;0.80;;
43706;SDS011;61348;53.392;-6.248;2023-07-13T11:40:58;1.50;;;1.20;;
43706;SDS011;61348;53.392;-6.248;2023-07-13T11:43:30;2.10;;;1.05;;
43706;SDS011;61348;53.392;-6.248;2023-07-13T11:45:56;2.63;;;1.23;;
43706;SDS011;61348;53.392;-6.248;2023-07-13T11:48:25;2.58;;;1.10;;
43706;SDS011;61348;53.392;-6.248;2023-07-13T11:50:55;2.05;;;1.55;;
43706;SDS011;61348;53.392;-6.248;2023-07-13T11:53:36;1.20;;;0.80;;
43706;SDS011;61348;53.392;-6.248;2023-07-13T11:56:07;3.25;;;1.90;;
43706;SDS011;61348;53.392;-6.248;2023-07-13T11:58:34;4.65;;;2.00;;
43706;SDS011;61348;53.392;-6.248;2023-07-13T12:01:01;1.48;;;1.10;;
43706;SDS011;61348;53.392;-6.248;2023-07-13T12:03:31;4.80;;;1.98;;
43706;SDS011;61348;53.392;-6.248;2023-07-13T12:06:05;1.80;;;0.90;;
43706;SDS011;61348;53.392;-6.248;2023-07-13T12:08:49;2.53;;;1.20;;
43706;SDS011;61348;53.392;-6.248;2023-07-13T12:11:16;3.55;;;0.90;;
43706;SDS011;61348;53.392;-6.248;2023-07-13T12:13:44;1.85;;;0.93;;
43706;SDS011;61348;53.392;-6.248;2023-07-13T12:16:15;2.05;;;0.98;;
43706;SDS011;61348;53.392;-6.248;2023-07-13T12:18:43;3.97;;;1.27;;
43706;SDS011;61348;53.392;-6.248;2023-07-13T12:21:16;6.70;;;1.33;;
43706;SDS011;61348;53.392;-6.248;2023-07-13T12:23:47;0.93;;;0.80;;
43706;SDS011;61348;53.392;-6.248;2023-07-13T12:26:16;3.58;;;1.00;;
43706;SDS011;61348;53.392;-6.248;2023-07-13T12:28:51;4.30;;;1.35;;
43706;SDS011;61348;53.392;-6.248;2023-07-13T12:34:03;1.48;;;1.30;;
43706;SDS011;61348;53.392;-6.248;2023-07-13T12:36:31;1.83;;;1.10;;
43706;SDS011;61348;53.392;-6.248;2023-07-13T12:39:00;2.38;;;1.05;;
43706;SDS011;61348;53.392;-6.248;2023-07-13T12:41:39;2.72;;;1.02;;
43706;SDS011;61348;53.392;-6.248;2023-07-13T12:44:13;1.05;;;0.80;;
43706;SDS011;61348;53.392;-6.248;2023-07-13T12:49:50;2.47;;;1.40;;
43706;SDS011;61348;53.392;-6.248;2023-07-13T12:52:21;5.80;;;1.80;;
43706;SDS011;61348;53.392;-6.248;2023-07-13T12:55:06;2.22;;;1.40;;
43706;SDS011;61348;53.392;-6.248;2023-07-13T12:57:41;2.75;;;1.27;;
43706;SDS011;61348;53.392;-6.248;2023-07-13T13:00:31;3.05;;;1.67;;
43706;SDS011;61348;53.392;-6.248;2023-07-13T13:03:13;2.35;;;1.52;;
43706;SDS011;61348;53.392;-6.248;2023-07-13T13:05:59;4.32;;;1.23;;
43706;SDS011;61348;53.392;-6.248;2023-07-13T13:08:32;3.72;;;0.98;;
43706;SDS011;61348;53.392;-6.248;2023-07-13T13:11:02;4.82;;;1.33;;
43706;SDS011;61348;53.392;-6.248;2023-07-13T13:13:29;3.92;;;1.10;;
43706;SDS011;61348;53.392;-6.248;2023-07-13T13:16:00;1.88;;;1.13;;
43706;SDS011;61348;53.392;-6.248;2023-07-13T13:18:28;1.83;;;1.35;;
43706;SDS011;61348;53.392;-6.248;2023-07-13T13:20:57;3.08;;;1.00;;
43706;SDS011;61348;53.392;-6.248;2023-07-13T13:23:23;1.50;;;1.17;;
43706;SDS011;61348;53.392;-6.248;2023-07-13T13:25:51;3.47;;;1.38;;
43706;SDS011;61348;53.392;-6.248;2023-07-13T13:28:19;3.10;;;1.33;;
43706;SDS011;61348;53.392;-6.248;2023-07-13T13:30:52;3.63;;;0.90;;
43706;SDS011;61348;53.392;-6.248;2023-07-13T13:33:20;2.42;;;1.00;;
43706;SDS011;61348;53.392;-6.248;2023-07-13T13:35:48;4.47;;;1.50;;
43706;SDS011;61348;53.392;-6.248;2023-07-13T13:38:25;3.75;;;1.10;;
43706;SDS011;61348;53.392;-6.248;2023-07-13T13:40:53;4.47;;;0.80;;
43706;SDS011;61348;53.392;-6.248;2023-07-13T13:43:24;1.95;;;0.95;;
43706;SDS011;61348;53.392;-6.248;2023-07-13T13:45:54;1.25;;;1.13;;
43706;SDS011;61348;53.392;-6.248;2023-07-13T13:48:28;1.80;;;1.10;;
43706;SDS011;61348;53.392;-6.248;2023-07-13T13:50:58;1.75;;;1.02;;
43706;SDS011;61348;53.392;-6.248;2023-07-13T13:53:26;3.08;;;1.33;;
43706;SDS011;61348;53.392;-6.248;2023-07-13T13:55:53;2.15;;;1.27;;
43706;SDS011;61348;53.392;-6.248;2023-07-13T13:58:21;5.80;;;1.90;;
43706;SDS011;61348;53.392;-6.248;2023-07-13T14:00:47;2.35;;;1.33;;
43706;SDS011;61348;53.392;-6.248;2023-07-13T14:03:17;3.90;;;1.17;;
43706;SDS011;61348;53.392;-6.248;2023-07-13T14:05:45;3.50;;;1.80;;
43706;SDS011;61348;53.392;-6.248;2023-07-13T14:08:17;2.80;;;1.55;;
43706;SDS011;61348;53.392;-6.248;2023-07-13T14:10:52;3.03;;;1.23;;
43706;SDS011;61348;53.392;-6.248;2023-07-13T14:13:22;3.55;;;1.25;;
43706;SDS011;61348;53.392;-6.248;2023-07-13T14:15:53;2.10;;;1.10;;
43706;SDS011;61348;53.392;-6.248;2023-07-13T14:18:21;2.08;;;1.05;;
43706;SDS011;61348;53.392;-6.248;2023-07-13T14:20:48;2.58;;;0.95;;
43706;SDS011;61348;53.392;-6.248;2023-07-13T14:23:15;6.72;;;1.35;;
43706;SDS011;61348;53.392;-6.248;2023-07-13T14:25:44;2.38;;;1.05;;
43706;SDS011;61348;53.392;-6.248;2023-07-13T14:28:20;3.38;;;1.40;;
43706;SDS011;61348;53.392;-6.248;2023-07-13T14:30:52;2.17;;;0.90;;
43706;SDS011;61348;53.392;-6.248;2023-07-13T14:33:21;2.75;;;1.05;;
43706;SDS011;61348;53.392;-6.248;2023-07-13T14:35:49;1.20;;;1.00;;
43706;SDS011;61348;53.392;-6.248;2023-07-13T14:38:19;1.42;;;1.08;;
43706;SDS011;61348;53.392;-6.248;2023-07-13T14:40:47;1.92;;;0.98;;
43706;SDS011;61348;53.392;-6.248;2023-07-13T14:43:14;3.38;;;1.00;;
43706;SDS011;61348;53.392;-6.248;2023-07-13T14:45:49;1.10;;;0.90;;
43706;SDS011;61348;53.392;-6.248;2023-07-13T14:50:55;2.35;;;1.00;;
43706;SDS011;61348;53.392;-6.248;2023-07-13T14:53:27;1.20;;;0.88;;
43706;SDS011;61348;53.392;-6.248;2023-07-13T14:55:54;3.85;;;1.00;;
43706;SDS011;61348;53.392;-6.248;2023-07-13T14:58:21;3.78;;;1.27;;
43706;SDS011;61348;53.392;-6.248;2023-07-13T15:00:48;3.78;;;1.27;;
43706;SDS011;61348;53.392;-6.248;2023-07-13T15:03:17;1.35;;;1.02;;
43706;SDS011;61348;53.392;-6.248;2023-07-13T15:05:50;5.10;;;1.65;;
43706;SDS011;61348;53.392;-6.248;2023-07-13T15:08:17;2.55;;;1.92;;
43706;SDS011;61348;53.392;-6.248;2023-07-13T15:10:44;1.58;;;0.90;;
43706;SDS011;61348;53.392;-6.248;2023-07-13T15:13:18;1.88;;;1.20;;
43706;SDS011;61348;53.392;-6.248;2023-07-13T15:15:47;1.00;;;0.85;;
43706;SDS011;61348;53.392;-6.248;2023-07-13T15:18:20;0.90;;;0.80;;
43706;SDS011;61348;53.392;-6.248;2023-07-13T15:20:50;1.85;;;1.00;;
43706;SDS011;61348;53.392;-6.248;2023-07-13T15:23:18;1.90;;;0.98;;
43706;SDS011;61348;53.392;-6.248;2023-07-13T15:25:45;1.92;;;0.80;;
43706;SDS011;61348;53.392;-6.248;2023-07-13T15:28:12;2.78;;;0.93;;
43706;SDS011;61348;53.392;-6.248;2023-07-13T15:35:45;2.33;;;1.02;;
43706;SDS011;61348;53.392;-6.248;2023-07-13T15:38:19;2.50;;;0.80;;
43706;SDS011;61348;53.392;-6.248;2023-07-13T15:40:51;2.97;;;0.88;;
43706;SDS011;61348;53.392;-6.248;2023-07-13T15:43:18;1.67;;;1.02;;
43706;SDS011;61348;53.392;-6.248;2023-07-13T15:45:46;1.38;;;1.00;;
43706;SDS011;61348;53.392;-6.248;2023-07-13T15:48:21;4.45;;;0.88;;
43706;SDS011;61348;53.392;-6.248;2023-07-13T15:50:50;1.80;;;0.95;;
43706;SDS011;61348;53.392;-6.248;2023-07-13T15:53:23;2.25;;;1.05;;